Latest Weather Observations for Laverton

IDW60801

Issued at 5:33 pm WST Monday 17 December 2018 (issued every 10 minutes, with the page automatically refreshed every 10 minutes)

About weather observations | Map of weather stations | Latest weather observations for WA | Other Formats
Station Details ID: 012305 Name: LAVERTON AERO Lat: -28.61 Lon: 122.42 Height: 464.3 m
Data from the previous 72 hours. | See also: Recent months at Laverton
Date/Time
WST
Temp
°C
App
Temp
°C
Dew
Point
°C
Rel
Hum
%
Delta-T
°C
Wind Press
QNH
hPa
Press
MSL
hPa
Rain since
9am
mm
Dir  Spd
km/h
Gust
km/h
Spd
kts
Gust
kts
17/05:30pm 21.6 20.3 15.9 70 3.5 SE 17 20 9 11 1007.1 1004.1 7.6
17/05:00pm 21.1 19.6 16.7 76 2.7 SE 20 30 11 16 1006.7 1003.7 7.6
17/04:30pm 20.1 19.6 17.7 86 1.5 SE 17 22 9 12 1006.8 1003.8 7.6
17/04:00pm 18.9 19.0 17.4 91 0.9 S 13 17 7 9 1006.8 1003.8 7.6
17/03:30pm 18.5 18.3 16.8 90 1.0 N 13 20 7 11 1007.4 1004.3 6.2
17/03:03pm 18.5 14.5 16.8 90 1.0 N 33 52 18 28 1006.7 1003.7 2.8
17/03:00pm 18.3 14.0 16.8 91 0.9 N 35 52 19 28 1006.8 1003.8 2.6
17/02:44pm 22.1 19.5 15.9 68 3.8 SW 24 52 13 28 1006.7 1003.7 1.0
17/02:30pm 24.7 23.7 13.3 49 6.8 SSE 11 22 6 12 1005.6 1002.5 0.2
17/02:00pm 26.7 22.9 12.4 41 8.5 S 24 39 13 21 1005.4 1002.3 0.0
17/01:40pm 27.4 22.6 11.8 38 9.2 SSW 28 48 15 26 1005.4 1002.3 0.0
17/01:30pm 27.8 24.3 12.2 38 9.2 SSW 22 35 12 19 1005.4 1002.3 0.0
17/01:00pm 26.9 23.4 12.2 40 8.7 SSW 22 32 12 17 1005.6 1002.5 0.0
17/12:30pm 27.3 23.3 12.9 41 8.6 SSW 26 43 14 23 1005.7 1002.6 0.0
17/12:00pm 25.9 22.7 13.1 45 7.6 S 22 33 12 18 1005.7 1002.6 0.0
17/11:30am 26.6 23.1 13.3 43 8.0 SSW 24 35 13 19 1005.6 1002.5 0.0
17/11:00am 26.2 23.0 13.0 44 7.9 SW 22 32 12 17 1005.7 1002.6 0.0
17/10:30am 25.4 22.9 13.6 48 7.1 SSW 19 30 10 16 1005.9 1002.8 0.0
17/10:00am 24.0 21.5 13.5 52 6.3 SSW 19 35 10 19 1005.9 1002.8 0.0
17/09:30am 24.4 21.3 13.3 50 6.6 SSW 22 30 12 16 1005.7 1002.6 0.0
17/09:00am 24.8 21.9 13.0 47 7.0 S 20 30 11 16 1005.4 1002.3 0.0
17/08:30am 25.0 21.9 12.2 44 7.5 SW 20 30 11 16 1005.1 1002.0 0.0
17/08:00am 24.9 20.5 10.4 40 8.2 WSW 24 32 13 17 1004.9 1001.9 0.0
17/07:30am 24.4 19.6 10.3 41 8.0 WSW 26 33 14 18 1004.9 1001.9 0.0
17/07:00am 24.0 19.6 10.3 42 7.7 WSW 24 32 13 17 1004.4 1001.4 0.0
17/06:30am 23.5 18.9 9.5 41 7.8 W 24 33 13 18 1004.3 1001.3 0.0
17/06:00am 23.3 19.9 9.0 40 7.9 W 17 24 9 13 1004.1 1001.0 0.0
17/05:30am 22.7 21.1 10.2 45 7.0 WSW 9 15 5 8 1003.7 1000.6 0.0
17/05:00am 22.7 21.0 9.8 44 7.2 W 9 13 5 7 1003.3 1000.2 0.0
17/04:30am 23.2 20.7 9.6 42 7.5 W 13 15 7 8 1003.1 1000.0 0.0
17/04:00am 23.4 20.7 9.0 40 7.9 W 13 15 7 8 1002.6 999.6 0.0
17/03:30am 24.2 21.0 8.6 37 8.5 W 15 19 8 10 1002.5 999.5 0.0
17/03:00am 24.9 21.3 8.4 35 9.1 WSW 17 22 9 12 1002.4 999.4 0.0
17/02:30am 25.3 22.1 8.3 34 9.3 WSW 15 20 8 11 1002.0 998.9 0.0
17/02:00am 25.6 22.3 8.1 33 9.6 SW 15 20 8 11 1002.0 998.9 0.0
17/01:30am 25.7 22.1 8.2 33 9.6 SW 17 24 9 13 1001.5 998.4 0.0
17/01:00am 25.6 22.1 8.6 34 9.4 W 17 22 9 12 1001.5 998.4 0.0
17/12:30am 26.0 22.1 8.5 33 9.7 WSW 19 28 10 15 1001.3 998.2 0.0
17/12:00am 26.1 21.9 8.1 32 9.9 WSW 20 30 11 16 1001.5 998.4 0.0
 
Date/Time
WST
Temp
°C
App
Temp
°C
Dew
Point
°C
Rel
Hum
%
Delta-T
°C
Wind Press
QNH
hPa
Press
MSL
hPa
Rain since
9am
mm
Dir  Spd
km/h
Gust
km/h
Spd
kts
Gust
kts
16/11:30pm 26.8 22.3 6.2 27 11.0 SW 19 24 10 13 1001.2 998.1 0.0
16/11:00pm 27.1 22.8 5.4 25 11.5 WSW 17 22 9 12 1001.4 998.3 0.0
16/10:30pm 25.0 22.9 8.1 34 9.2 W 9 13 5 7 1001.6 998.5 0.0
16/10:00pm 26.4 24.1 7.4 30 10.4 W 9 9 5 5 1001.8 998.7 0.0
16/09:30pm 28.4 24.6 5.9 24 12.0 WSW 15 20 8 11 1001.7 998.6 0.0
16/09:00pm 28.4 25.6 7.1 26 11.7 WSW 11 13 6 7 1001.7 998.6 0.0
16/08:30pm 28.8 26.1 7.4 26 11.8 WSW 11 13 6 7 1001.6 998.5 0.0
16/08:00pm 28.9 26.5 6.9 25 12.1 WSW 9 13 5 7 1001.6 998.5 0.0
16/07:30pm 30.0 26.5 5.3 21 13.2 W 13 17 7 9 1001.5 998.4 0.0
16/07:00pm 31.8 27.2 3.8 17 14.8 W 17 24 9 13 1001.1 998.0 0.0
16/06:30pm 33.4 27.8 1.3 13 16.4 WNW 20 28 11 15 1000.8 997.7 0.0
16/06:00pm 34.3 28.4 2.0 13 16.8 WNW 22 35 12 19 1000.4 997.4 0.0
16/05:30pm 35.0 28.9 0.2 11 17.6 WNW 22 30 12 16 1000.2 997.1 0.0
16/05:00pm 35.3 29.0 1.6 12 17.6 NW 24 35 13 19 1000.0 996.9 0.0
16/04:30pm 35.4 28.5 2.8 13 17.2 WNW 28 41 15 22 999.9 996.8 0.0
16/04:00pm 35.7 28.7 4.1 14 17.2 WNW 30 44 16 24 1000.0 996.9 0.0
16/03:30pm 35.5 29.2 5.8 16 16.5 NW 28 46 15 25 1000.2 997.1 0.0
16/03:09pm 35.8 29.4 5.1 15 16.9 NW 28 50 15 27 1000.2 997.1 0.0
16/03:00pm 36.4 30.7 6.6 16 16.9 NW 26 43 14 23 1000.3 997.2 0.0
16/02:30pm 35.6 32.2 9.2 20 15.4 WNW 17 30 9 16 1000.8 997.7 0.0
16/02:00pm 34.6 31.7 11.1 24 14.1 NW 17 33 9 18 1001.2 998.1 0.0
16/01:30pm 35.6 32.8 13.1 25 13.9 W 20 33 11 18 1001.4 998.3 0.0
16/01:00pm 33.1 30.0 11.6 27 12.9 W 19 35 10 19 1001.7 998.6 0.0
16/12:30pm 33.0 29.9 12.1 28 12.6 WNW 20 33 11 18 1002.0 998.9 0.0
16/12:00pm 32.2 29.3 12.4 30 12.0 W 19 28 10 15 1002.3 999.2 0.0
16/11:30am 31.5 29.0 12.3 31 11.6 WSW 17 30 9 16 1002.6 999.6 0.0
16/11:00am 32.0 28.2 12.3 30 11.9 W 24 35 13 19 1002.9 999.8 0.0
16/10:30am 32.4 27.9 4.2 17 15.0 W 17 24 9 13 1003.0 999.9 0.0
16/10:00am 30.7 26.1 3.7 18 14.2 W 17 24 9 13 1003.2 1000.1 0.0
16/09:30am 30.6 25.6 4.4 19 13.8 W 20 28 11 15 1003.2 1000.1 0.0
16/09:00am 30.7 26.2 4.4 19 14.0 WNW 17 22 9 12 1002.9 999.8 0.0
16/08:30am 30.2 25.2 4.8 20 13.5 WNW 20 26 11 14 1003.1 1000.0 0.0
16/08:00am 29.4 24.5 4.1 20 13.3 NNE 19 24 10 13 1003.1 1000.0 0.0
16/07:30am 28.4 23.5 4.0 21 12.6 NNE 19 28 10 15 1003.0 999.9 0.0
16/07:00am 26.9 22.1 4.6 24 11.6 NE 19 26 10 14 1003.0 999.9 0.0
16/06:30am 24.6 20.7 5.4 29 10.0 E 15 19 8 10 1003.0 999.9 0.0
16/06:00am 23.0 19.9 5.4 32 9.1 E 11 15 6 8 1003.0 999.9 0.0
16/05:30am 20.9 19.3 8.9 46 6.5 ESE 7 9 4 5 1003.1 1000.0 0.0
16/05:00am 19.6 18.5 10.0 54 5.3 E 6 7 3 4 1002.9 999.8 0.0
16/04:30am 19.8 19.3 7.9 46 6.3 CALM 0 0 0 0 1002.5 999.5 0.0
16/04:00am 20.7 18.8 6.6 40 7.3 ESE 6 6 3 3 1002.4 999.4 0.0
16/03:30am 21.3 19.1 6.0 37 7.9 S 7 9 4 5 1002.5 999.5 0.0
16/03:00am 22.4 19.7 5.4 33 8.7 S 9 11 5 6 1002.3 999.2 0.0
16/02:30am 23.4 20.8 4.4 29 9.6 E 7 9 4 5 1002.2 999.1 0.0
16/02:00am 24.2 20.8 4.0 27 10.2 ENE 11 15 6 8 1002.4 999.4 0.0
16/01:30am 25.1 23.0 3.7 25 10.8 N 4 7 2 4 1002.7 999.7 0.0
16/01:00am 25.6 21.5 4.1 25 11.0 NE 15 20 8 11 1002.6 999.6 0.0
16/12:30am 26.4 22.2 3.6 23 11.6 NE 15 22 8 12 1003.0 999.9 0.0
16/12:00am 26.9 21.9 3.4 22 12.0 NE 19 30 10 16 1003.0 999.9 0.0
 
Date/Time
WST
Temp
°C
App
Temp
°C
Dew
Point
°C
Rel
Hum
%
Delta-T
°C
Wind Press
QNH
hPa
Press
MSL
hPa
Rain since
9am
mm
Dir  Spd
km/h
Gust
km/h
Spd
kts
Gust
kts
15/11:30pm 27.3 20.6 3.7 22 12.1 ENE 28 35 15 19 1002.7 999.7 0.0
15/11:00pm 27.7 21.3 3.4 21 12.5 ENE 26 37 14 20 1002.7 999.7 0.0
15/10:30pm 27.7 21.3 3.4 21 12.4 ENE 26 35 14 19 1002.7 999.7 0.0
15/10:00pm 28.7 20.8 2.1 18 13.4 ENE 33 43 18 23 1002.7 999.7 0.0
15/09:30pm 28.9 21.2 2.2 18 13.4 ENE 32 43 17 23 1002.7 999.7 0.0
15/09:00pm 29.1 21.9 3.1 19 13.4 ENE 30 39 16 21 1002.9 999.8 0.0
15/08:30pm 29.4 21.9 3.4 19 13.4 E 32 41 17 22 1002.9 999.8 0.0
15/08:00pm 29.8 22.7 3.7 19 13.6 E 30 39 16 21 1003.0 999.9 0.0
15/07:30pm 30.4 24.2 4.2 19 13.8 E 26 35 14 19 1003.1 1000.0 0.0
15/07:00pm 31.2 24.6 4.1 18 14.3 E 28 35 15 19 1003.0 999.9 0.0
15/06:30pm 32.6 26.3 3.5 16 15.3 E 26 33 14 18 1003.3 1000.2 0.0
15/06:00pm 33.4 26.8 2.3 14 16.2 ENE 26 33 14 18 1003.5 1000.4 0.0
15/05:30pm 33.9 27.6 1.6 13 16.6 NE 24 30 13 16 1003.9 1000.8 0.0
15/05:00pm 34.2 28.1 2.9 14 16.5 ENE 24 35 13 19 1003.7 1000.6 0.0
15/04:30pm 34.3 27.9 3.0 14 16.5 NE 26 37 14 20 1003.3 1000.2 0.0
15/04:00pm 34.4 28.4 3.1 14 16.6 ENE 24 41 13 22 1003.4 1000.3 0.0
15/03:30pm 34.1 28.0 2.8 14 16.4 ENE 24 35 13 19 1003.7 1000.6 0.0
15/03:00pm 34.3 29.0 3.0 14 16.6 ENE 20 35 11 19 1004.1 1001.0 0.0
15/02:30pm 33.8 28.6 3.6 15 16.0 NE 20 33 11 18 1004.7 1001.7 0.0
15/02:00pm 33.1 28.0 3.9 16 15.6 ENE 20 32 11 17 1005.4 1002.3 0.0
15/01:30pm 33.6 28.9 5.2 17 15.4 E 19 30 10 16 1005.8 1002.7 0.0
15/01:00pm 31.7 27.1 3.7 17 14.7 ENE 17 24 9 13 1006.6 1003.6 0.0
15/12:30pm 31.4 26.2 3.4 17 14.6 ENE 20 28 11 15 1006.9 1003.9 0.0
15/12:00pm 31.0 26.1 3.9 18 14.3 ENE 19 26 10 14 1007.7 1004.6 0.0
15/11:30am 30.3 25.5 5.6 21 13.3 ENE 20 26 11 14 1008.2 1005.2 0.0
15/11:00am 30.0 25.4 3.9 19 13.6 ENE 17 28 9 15 1008.8 1005.8 0.0
15/10:30am 29.6 25.2 5.0 21 13.0 NE 17 24 9 13 1009.1 1006.1 0.0
15/10:00am 29.2 25.1 6.0 23 12.5 NE 17 24 9 13 1009.4 1006.4 0.0
15/09:30am 27.6 23.2 4.6 23 12.0 NE 17 28 9 15 1009.9 1006.8 0.0
15/09:00am 27.5 22.9 5.7 25 11.6 NE 19 26 10 14 1010.0 1006.9 0.0
15/08:30am 25.9 20.6 4.9 26 10.9 NE 22 33 12 18 1010.1 1007.0 0.0
15/08:00am 24.6 18.1 4.9 28 10.1 NE 28 39 15 21 1010.4 1007.4 0.0
15/07:30am 23.3 16.4 4.8 30 9.4 NE 30 39 16 21 1010.2 1007.2 0.0
15/07:00am 22.5 16.1 5.0 32 8.9 ENE 28 37 15 20 1010.5 1007.5 0.0
15/06:30am 21.0 14.6 5.0 35 8.0 ENE 28 35 15 19 1010.6 1007.6 0.0
15/06:00am 19.8 14.1 5.1 38 7.4 ENE 24 33 13 18 1010.6 1007.6 0.0
15/05:30am 18.5 15.1 5.7 43 6.4 ENE 13 19 7 10 1010.7 1007.7 0.0
15/05:00am 18.2 14.0 5.8 44 6.2 ENE 17 22 9 12 1010.3 1007.3 0.0
15/04:30am 18.4 13.8 5.6 43 6.4 ENE 19 26 10 14 1009.9 1006.8 0.0
15/04:00am 18.9 13.3 5.4 41 6.8 ENE 24 32 13 17 1009.3 1006.3 0.0
15/03:30am 19.3 12.9 5.4 40 7.0 ENE 28 35 15 19 1009.0 1006.0 0.0
15/03:00am 19.7 13.0 5.4 39 7.2 ENE 30 37 16 20 1008.8 1005.8 0.0
15/02:30am 19.5 13.6 5.6 40 7.0 ENE 26 32 14 17 1009.1 1006.1 0.0
15/02:00am 20.1 14.4 5.0 37 7.6 ENE 24 30 13 16 1009.2 1006.2 0.0
15/01:30am 20.5 14.8 4.9 36 7.8 ENE 24 32 13 17 1009.5 1006.5 0.0
15/01:00am 20.6 15.2 4.6 35 8.0 ENE 22 28 12 15 1010.0 1006.9 0.0
15/12:30am 21.1 15.3 4.2 33 8.4 ENE 24 32 13 17 1010.3 1007.3 0.0
15/12:00am 21.7 15.4 3.9 31 8.8 ENE 26 33 14 18 1010.7 1007.7 0.0
 
Date/Time
WST
Temp
°C
App
Temp
°C
Dew
Point
°C
Rel
Hum
%
Delta-T
°C
Wind Press
QNH
hPa
Press
MSL
hPa
Rain since
9am
mm
Dir  Spd
km/h
Gust
km/h
Spd
kts
Gust
kts
14/11:30pm 22.0 16.0 3.6 30 9.1 E 24 30 13 16 1011.1 1008.1 0.0
14/11:00pm 22.5 16.5 3.6 29 9.4 E 24 30 13 16 1011.5 1008.5 0.0
14/10:30pm 23.0 17.8 3.5 28 9.7 E 20 26 11 14 1011.7 1008.7 0.0
14/10:00pm 23.8 18.5 3.2 26 10.2 E 20 24 11 13 1012.0 1008.9 0.0
14/09:30pm 24.3 19.1 3.6 26 10.4 ENE 20 28 11 15 1012.1 1009.1 0.0
14/09:00pm 25.3 19.9 2.7 23 11.2 E 20 24 11 13 1011.8 1008.8 0.0
14/08:30pm 25.7 20.6 3.0 23 11.4 E 19 24 10 13 1011.7 1008.7 0.0
14/08:00pm 26.6 21.5 3.2 22 11.8 E 19 22 10 12 1011.5 1008.5 0.0
14/07:30pm 27.4 22.3 3.2 21 12.3 E 19 22 10 12 1011.5 1008.5 0.0
14/07:00pm 28.3 23.2 3.2 20 12.8 E 19 24 10 13 1011.3 1008.3 0.0
14/06:30pm 29.3 24.1 3.3 19 13.4 E 20 26 11 14 1011.2 1008.2 0.0
14/06:00pm 30.1 24.5 3.2 18 13.9 E 22 28 12 15 1011.0 1008.0 0.0

Other Formats:

Comma delimited format used in spreadsheet applications
http://www.bom.gov.au/fwo/IDW60801/IDW60801.94449.axf

JavaScript Object Notation format (JSON) in row-major order
http://www.bom.gov.au/fwo/IDW60801/IDW60801.94449.json